sensor_id;sensor_type;location;lat;lon;timestamp;temperature;humidity
3942;DHT22;1985;48.592;8.850;2022-11-20T00:01:10;5.90;99.90
3942;DHT22;1985;48.592;8.850;2022-11-20T00:03:37;6.00;99.90
3942;DHT22;1985;48.592;8.850;2022-11-20T00:06:08;6.00;99.90
3942;DHT22;1985;48.592;8.850;2022-11-20T00:08:34;6.00;99.90
3942;DHT22;1985;48.592;8.850;2022-11-20T00:11:08;6.00;99.90
3942;DHT22;1985;48.592;8.850;2022-11-20T00:13:34;6.00;99.90
3942;DHT22;1985;48.592;8.850;2022-11-20T00:16:02;6.00;99.90
3942;DHT22;1985;48.592;8.850;2022-11-20T00:18:28;5.80;99.90
3942;DHT22;1985;48.592;8.850;2022-11-20T00:21:00;5.80;99.90
3942;DHT22;1985;48.592;8.850;2022-11-20T00:23:26;5.80;99.90
3942;DHT22;1985;48.592;8.850;2022-11-20T00:25:51;5.80;99.90
3942;DHT22;1985;48.592;8.850;2022-11-20T00:28:17;5.80;99.90
3942;DHT22;1985;48.592;8.850;2022-11-20T00:30:43;5.80;99.90
3942;DHT22;1985;48.592;8.850;2022-11-20T00:33:08;5.80;99.90
3942;DHT22;1985;48.592;8.850;2022-11-20T00:35:34;5.70;99.90
3942;DHT22;1985;48.592;8.850;2022-11-20T00:37:59;5.80;99.90
3942;DHT22;1985;48.592;8.850;2022-11-20T00:40:25;5.80;99.90
3942;DHT22;1985;48.592;8.850;2022-11-20T00:42:51;5.80;99.90
3942;DHT22;1985;48.592;8.850;2022-11-20T00:45:16;5.70;99.90
3942;DHT22;1985;48.592;8.850;2022-11-20T00:47:42;5.50;99.90
3942;DHT22;1985;48.592;8.850;2022-11-20T00:50:08;5.50;99.90
3942;DHT22;1985;48.592;8.850;2022-11-20T00:52:34;5.40;99.90
3942;DHT22;1985;48.592;8.850;2022-11-20T00:54:59;5.40;99.90
3942;DHT22;1985;48.592;8.850;2022-11-20T00:57:25;5.40;99.90
3942;DHT22;1985;48.592;8.850;2022-11-20T00:59:50;5.40;99.90
3942;DHT22;1985;48.592;8.850;2022-11-20T01:02:16;5.40;99.90
3942;DHT22;1985;48.592;8.850;2022-11-20T01:04:42;5.20;99.90
3942;DHT22;1985;48.592;8.850;2022-11-20T01:07:08;5.20;99.90
3942;DHT22;1985;48.592;8.850;2022-11-20T01:09:33;5.30;99.90
3942;DHT22;1985;48.592;8.850;2022-11-20T01:11:59;5.30;99.90
3942;DHT22;1985;48.592;8.850;2022-11-20T01:14:25;5.20;99.90
3942;DHT22;1985;48.592;8.850;2022-11-20T01:16:51;5.30;99.90
3942;DHT22;1985;48.592;8.850;2022-11-20T01:19:20;5.10;99.90
3942;DHT22;1985;48.592;8.850;2022-11-20T01:21:48;5.20;99.90
3942;DHT22;1985;48.592;8.850;2022-11-20T01:24:16;5.10;99.90
3942;DHT22;1985;48.592;8.850;2022-11-20T01:26:43;5.10;99.90
3942;DHT22;1985;48.592;8.850;2022-11-20T01:29:14;5.10;99.90
3942;DHT22;1985;48.592;8.850;2022-11-20T01:31:40;5.10;99.90
3942;DHT22;1985;48.592;8.850;2022-11-20T01:34:10;5.10;99.90
3942;DHT22;1985;48.592;8.850;2022-11-20T01:36:36;5.20;99.90
3942;DHT22;1985;48.592;8.850;2022-11-20T01:39:12;5.10;99.90
3942;DHT22;1985;48.592;8.850;2022-11-20T01:41:39;5.00;99.90
3942;DHT22;1985;48.592;8.850;2022-11-20T01:44:53;5.00;99.90
3942;DHT22;1985;48.592;8.850;2022-11-20T01:50:02;4.90;99.90
3942;DHT22;1985;48.592;8.850;2022-11-20T01:52:46;4.90;99.90
3942;DHT22;1985;48.592;8.850;2022-11-20T01:55:20;4.80;99.90
3942;DHT22;1985;48.592;8.850;2022-11-20T01:57:48;4.70;99.90
3942;DHT22;1985;48.592;8.850;2022-11-20T02:00:17;4.60;99.90
3942;DHT22;1985;48.592;8.850;2022-11-20T02:02:58;4.50;99.90
3942;DHT22;1985;48.592;8.850;2022-11-20T02:05:43;4.50;99.90
3942;DHT22;1985;48.592;8.850;2022-11-20T02:08:10;4.50;99.90
3942;DHT22;1985;48.592;8.850;2022-11-20T02:10:37;4.60;99.90
3942;DHT22;1985;48.592;8.850;2022-11-20T02:13:03;4.50;99.90
3942;DHT22;1985;48.592;8.850;2022-11-20T02:15:48;4.50;99.90
3942;DHT22;1985;48.592;8.850;2022-11-20T02:18:16;4.50;99.90
3942;DHT22;1985;48.592;8.850;2022-11-20T02:20:44;4.50;99.90
3942;DHT22;1985;48.592;8.850;2022-11-20T02:25:46;4.50;99.90
3942;DHT22;1985;48.592;8.850;2022-11-20T02:28:13;4.60;99.90
3942;DHT22;1985;48.592;8.850;2022-11-20T02:30:38;4.70;99.90
3942;DHT22;1985;48.592;8.850;2022-11-20T02:33:04;4.80;99.90
3942;DHT22;1985;48.592;8.850;2022-11-20T02:37:57;4.80;99.90
3942;DHT22;1985;48.592;8.850;2022-11-20T02:40:24;4.80;99.90
3942;DHT22;1985;48.592;8.850;2022-11-20T02:42:54;4.80;99.90
3942;DHT22;1985;48.592;8.850;2022-11-20T02:45:20;4.70;99.90
3942;DHT22;1985;48.592;8.850;2022-11-20T02:47:46;4.70;99.90
3942;DHT22;1985;48.592;8.850;2022-11-20T02:50:12;4.70;99.90
3942;DHT22;1985;48.592;8.850;2022-11-20T02:52:37;4.70;99.90
3942;DHT22;1985;48.592;8.850;2022-11-20T02:55:04;4.60;99.90
3942;DHT22;1985;48.592;8.850;2022-11-20T02:57:29;4.60;99.90
3942;DHT22;1985;48.592;8.850;2022-11-20T02:59:55;4.30;99.90
3942;DHT22;1985;48.592;8.850;2022-11-20T03:02:21;4.30;99.90
3942;DHT22;1985;48.592;8.850;2022-11-20T03:04:46;4.40;99.90
3942;DHT22;1985;48.592;8.850;2022-11-20T03:07:12;4.40;99.90
3942;DHT22;1985;48.592;8.850;2022-11-20T03:09:37;4.50;99.90
3942;DHT22;1985;48.592;8.850;2022-11-20T03:12:03;4.50;99.90
3942;DHT22;1985;48.592;8.850;2022-11-20T03:14:29;4.50;99.90
3942;DHT22;1985;48.592;8.850;2022-11-20T03:16:55;4.60;99.90
3942;DHT22;1985;48.592;8.850;2022-11-20T03:19:21;4.60;99.90
3942;DHT22;1985;48.592;8.850;2022-11-20T03:21:47;4.70;99.90
3942;DHT22;1985;48.592;8.850;2022-11-20T03:24:13;4.70;99.90
3942;DHT22;1985;48.592;8.850;2022-11-20T03:26:39;4.80;99.90
3942;DHT22;1985;48.592;8.850;2022-11-20T03:29:05;4.80;99.90
3942;DHT22;1985;48.592;8.850;2022-11-20T03:31:33;4.90;99.90
3942;DHT22;1985;48.592;8.850;2022-11-20T03:33:59;5.00;99.90
3942;DHT22;1985;48.592;8.850;2022-11-20T03:36:26;5.00;99.90
3942;DHT22;1985;48.592;8.850;2022-11-20T03:38:53;5.10;99.90
3942;DHT22;1985;48.592;8.850;2022-11-20T03:41:30;5.20;99.90
3942;DHT22;1985;48.592;8.850;2022-11-20T03:44:00;5.20;99.90
3942;DHT22;1985;48.592;8.850;2022-11-20T03:46:27;5.30;99.90
3942;DHT22;1985;48.592;8.850;2022-11-20T03:48:53;5.40;99.90
3942;DHT22;1985;48.592;8.850;2022-11-20T03:51:24;5.40;99.90
3942;DHT22;1985;48.592;8.850;2022-11-20T03:53:52;5.40;99.90
3942;DHT22;1985;48.592;8.850;2022-11-20T03:56:20;5.40;99.90
3942;DHT22;1985;48.592;8.850;2022-11-20T03:58:47;5.40;99.90
3942;DHT22;1985;48.592;8.850;2022-11-20T04:01:16;5.30;99.90
3942;DHT22;1985;48.592;8.850;2022-11-20T04:03:42;5.30;99.90
3942;DHT22;1985;48.592;8.850;2022-11-20T04:06:11;5.40;99.90
3942;DHT22;1985;48.592;8.850;2022-11-20T04:08:37;5.40;99.90
3942;DHT22;1985;48.592;8.850;2022-11-20T04:11:19;5.40;99.90
3942;DHT22;1985;48.592;8.850;2022-11-20T04:13:53;5.30;99.90
3942;DHT22;1985;48.592;8.850;2022-11-20T04:16:19;5.30;99.90
3942;DHT22;1985;48.592;8.850;2022-11-20T04:18:45;5.30;99.90
3942;DHT22;1985;48.592;8.850;2022-11-20T04:21:11;5.30;99.90
3942;DHT22;1985;48.592;8.850;2022-11-20T04:23:38;5.10;99.90
3942;DHT22;1985;48.592;8.850;2022-11-20T04:26:09;5.10;99.90
3942;DHT22;1985;48.592;8.850;2022-11-20T04:28:35;5.10;99.90
3942;DHT22;1985;48.592;8.850;2022-11-20T04:31:06;5.00;99.90
3942;DHT22;1985;48.592;8.850;2022-11-20T04:33:33;5.00;99.90
3942;DHT22;1985;48.592;8.850;2022-11-20T04:36:03;5.10;99.90
3942;DHT22;1985;48.592;8.850;2022-11-20T04:38:29;5.20;99.90
3942;DHT22;1985;48.592;8.850;2022-11-20T04:40:57;5.20;99.90
3942;DHT22;1985;48.592;8.850;2022-11-20T04:43:23;5.30;99.90
3942;DHT22;1985;48.592;8.850;2022-11-20T04:45:53;5.30;99.90
3942;DHT22;1985;48.592;8.850;2022-11-20T04:48:19;5.30;99.90
3942;DHT22;1985;48.592;8.850;2022-11-20T04:50:44;5.20;99.90
3942;DHT22;1985;48.592;8.850;2022-11-20T04:53:10;5.10;99.90
3942;DHT22;1985;48.592;8.850;2022-11-20T04:55:35;5.10;99.90
3942;DHT22;1985;48.592;8.850;2022-11-20T04:58:01;5.20;99.90
3942;DHT22;1985;48.592;8.850;2022-11-20T05:00:27;5.20;99.90
3942;DHT22;1985;48.592;8.850;2022-11-20T05:02:52;5.20;99.90
3942;DHT22;1985;48.592;8.850;2022-11-20T05:05:18;5.10;99.90
3942;DHT22;1985;48.592;8.850;2022-11-20T05:07:44;5.00;99.90
3942;DHT22;1985;48.592;8.850;2022-11-20T05:10:09;5.00;99.90
3942;DHT22;1985;48.592;8.850;2022-11-20T05:12:35;5.10;99.90
3942;DHT22;1985;48.592;8.850;2022-11-20T05:15:00;5.10;99.90
3942;DHT22;1985;48.592;8.850;2022-11-20T05:17:26;5.20;99.90
3942;DHT22;1985;48.592;8.850;2022-11-20T05:19:51;5.20;99.90
3942;DHT22;1985;48.592;8.850;2022-11-20T05:22:17;5.20;99.90
3942;DHT22;1985;48.592;8.850;2022-11-20T05:24:43;5.10;99.90
3942;DHT22;1985;48.592;8.850;2022-11-20T05:27:08;5.00;99.90
3942;DHT22;1985;48.592;8.850;2022-11-20T05:29:34;4.80;99.90
3942;DHT22;1985;48.592;8.850;2022-11-20T05:31:59;4.90;99.90
3942;DHT22;1985;48.592;8.850;2022-11-20T05:34:25;4.90;99.90
3942;DHT22;1985;48.592;8.850;2022-11-20T05:36:51;4.80;99.90
3942;DHT22;1985;48.592;8.850;2022-11-20T05:39:16;4.70;99.90
3942;DHT22;1985;48.592;8.850;2022-11-20T05:41:42;4.70;99.90
3942;DHT22;1985;48.592;8.850;2022-11-20T05:44:10;4.60;99.90
3942;DHT22;1985;48.592;8.850;2022-11-20T05:46:36;4.70;99.90
3942;DHT22;1985;48.592;8.850;2022-11-20T05:49:02;4.70;99.90
3942;DHT22;1985;48.592;8.850;2022-11-20T05:51:27;4.80;99.90
3942;DHT22;1985;48.592;8.850;2022-11-20T05:53:53;4.80;99.90
3942;DHT22;1985;48.592;8.850;2022-11-20T05:56:21;4.70;99.90
3942;DHT22;1985;48.592;8.850;2022-11-20T05:58:48;4.70;99.90
3942;DHT22;1985;48.592;8.850;2022-11-20T06:01:25;4.70;99.90
3942;DHT22;1985;48.592;8.850;2022-11-20T06:03:52;4.70;99.90
3942;DHT22;1985;48.592;8.850;2022-11-20T06:06:19;4.80;99.90
3942;DHT22;1985;48.592;8.850;2022-11-20T06:08:44;4.80;99.90
3942;DHT22;1985;48.592;8.850;2022-11-20T06:11:12;4.70;99.90
3942;DHT22;1985;48.592;8.850;2022-11-20T06:13:38;4.70;99.90
3942;DHT22;1985;48.592;8.850;2022-11-20T06:16:04;4.70;99.90
3942;DHT22;1985;48.592;8.850;2022-11-20T06:18:30;4.70;99.90
3942;DHT22;1985;48.592;8.850;2022-11-20T06:21:07;4.80;99.90
3942;DHT22;1985;48.592;8.850;2022-11-20T06:23:35;4.90;99.90
3942;DHT22;1985;48.592;8.850;2022-11-20T06:26:02;4.90;99.90
3942;DHT22;1985;48.592;8.850;2022-11-20T06:28:28;5.10;99.90
3942;DHT22;1985;48.592;8.850;2022-11-20T06:30:54;5.20;99.90
3942;DHT22;1985;48.592;8.850;2022-11-20T06:33:19;5.20;99.90
3942;DHT22;1985;48.592;8.850;2022-11-20T06:35:45;5.40;99.90
3942;DHT22;1985;48.592;8.850;2022-11-20T06:38:10;5.50;99.90
3942;DHT22;1985;48.592;8.850;2022-11-20T06:40:40;5.50;99.90
3942;DHT22;1985;48.592;8.850;2022-11-20T06:43:05;5.60;99.90
3942;DHT22;1985;48.592;8.850;2022-11-20T06:45:31;5.60;99.90
3942;DHT22;1985;48.592;8.850;2022-11-20T06:48:00;5.50;99.90
3942;DHT22;1985;48.592;8.850;2022-11-20T06:50:25;5.40;99.90
3942;DHT22;1985;48.592;8.850;2022-11-20T06:52:51;5.40;99.90
3942;DHT22;1985;48.592;8.850;2022-11-20T06:55:16;5.50;99.90
3942;DHT22;1985;48.592;8.850;2022-11-20T06:57:42;5.40;99.90
3942;DHT22;1985;48.592;8.850;2022-11-20T07:00:08;5.50;99.90
3942;DHT22;1985;48.592;8.850;2022-11-20T07:02:34;5.60;99.90
3942;DHT22;1985;48.592;8.850;2022-11-20T07:04:59;5.70;99.90
3942;DHT22;1985;48.592;8.850;2022-11-20T07:07:25;5.80;99.90
3942;DHT22;1985;48.592;8.850;2022-11-20T07:09:50;6.00;99.90
3942;DHT22;1985;48.592;8.850;2022-11-20T07:12:16;6.10;99.90
3942;DHT22;1985;48.592;8.850;2022-11-20T07:14:42;6.20;99.90
3942;DHT22;1985;48.592;8.850;2022-11-20T07:17:07;6.20;99.90
3942;DHT22;1985;48.592;8.850;2022-11-20T07:19:33;6.30;99.90
3942;DHT22;1985;48.592;8.850;2022-11-20T07:21:59;6.30;99.90
3942;DHT22;1985;48.592;8.850;2022-11-20T07:24:24;6.30;99.90
3942;DHT22;1985;48.592;8.850;2022-11-20T07:26:50;6.20;99.90
3942;DHT22;1985;48.592;8.850;2022-11-20T07:29:16;6.20;99.90
3942;DHT22;1985;48.592;8.850;2022-11-20T07:31:42;6.10;99.90
3942;DHT22;1985;48.592;8.850;2022-11-20T07:34:07;6.00;99.90
3942;DHT22;1985;48.592;8.850;2022-11-20T07:36:37;6.00;99.90
3942;DHT22;1985;48.592;8.850;2022-11-20T07:39:03;5.90;99.90
3942;DHT22;1985;48.592;8.850;2022-11-20T07:41:28;5.90;99.90
3942;DHT22;1985;48.592;8.850;2022-11-20T07:43:54;5.80;99.90
3942;DHT22;1985;48.592;8.850;2022-11-20T07:46:20;5.80;99.90
3942;DHT22;1985;48.592;8.850;2022-11-20T07:48:45;5.80;99.90
3942;DHT22;1985;48.592;8.850;2022-11-20T07:51:11;5.90;99.90
3942;DHT22;1985;48.592;8.850;2022-11-20T07:53:36;5.80;99.90
3942;DHT22;1985;48.592;8.850;2022-11-20T07:56:03;5.70;99.90
3942;DHT22;1985;48.592;8.850;2022-11-20T07:58:29;5.70;99.90
3942;DHT22;1985;48.592;8.850;2022-11-20T08:00:56;5.60;99.90
3942;DHT22;1985;48.592;8.850;2022-11-20T08:03:21;5.60;99.90
3942;DHT22;1985;48.592;8.850;2022-11-20T08:05:47;5.50;99.90
3942;DHT22;1985;48.592;8.850;2022-11-20T08:08:12;5.60;99.90
3942;DHT22;1985;48.592;8.850;2022-11-20T08:10:38;5.60;99.90
3942;DHT22;1985;48.592;8.850;2022-11-20T08:13:04;5.70;99.90
3942;DHT22;1985;48.592;8.850;2022-11-20T08:15:49;5.60;99.90
3942;DHT22;1985;48.592;8.850;2022-11-20T08:18:16;5.60;99.90
3942;DHT22;1985;48.592;8.850;2022-11-20T08:20:43;5.70;99.90
3942;DHT22;1985;48.592;8.850;2022-11-20T08:23:09;5.70;99.90
3942;DHT22;1985;48.592;8.850;2022-11-20T08:25:36;5.80;99.90
3942;DHT22;1985;48.592;8.850;2022-11-20T08:28:08;5.80;99.90
3942;DHT22;1985;48.592;8.850;2022-11-20T08:30:35;5.90;99.90
3942;DHT22;1985;48.592;8.850;2022-11-20T08:33:04;5.90;99.90
3942;DHT22;1985;48.592;8.850;2022-11-20T08:35:36;5.90;99.90
3942;DHT22;1985;48.592;8.850;2022-11-20T08:38:03;5.90;99.90
3942;DHT22;1985;48.592;8.850;2022-11-20T08:40:28;6.00;99.90
3942;DHT22;1985;48.592;8.850;2022-11-20T08:42:54;6.00;99.90
3942;DHT22;1985;48.592;8.850;2022-11-20T08:45:20;6.00;99.90
3942;DHT22;1985;48.592;8.850;2022-11-20T08:47:46;6.10;99.90
3942;DHT22;1985;48.592;8.850;2022-11-20T08:50:14;6.00;99.90
3942;DHT22;1985;48.592;8.850;2022-11-20T08:52:40;6.00;99.90
3942;DHT22;1985;48.592;8.850;2022-11-20T08:55:06;5.90;99.90
3942;DHT22;1985;48.592;8.850;2022-11-20T08:57:36;6.00;99.90
3942;DHT22;1985;48.592;8.850;2022-11-20T09:00:04;6.00;99.90
3942;DHT22;1985;48.592;8.850;2022-11-20T09:02:30;5.90;99.90
3942;DHT22;1985;48.592;8.850;2022-11-20T09:04:57;5.90;99.90
3942;DHT22;1985;48.592;8.850;2022-11-20T09:07:23;5.80;99.90
3942;DHT22;1985;48.592;8.850;2022-11-20T09:09:49;5.90;99.90
3942;DHT22;1985;48.592;8.850;2022-11-20T09:12:14;6.00;99.90
3942;DHT22;1985;48.592;8.850;2022-11-20T09:14:40;5.90;99.90
3942;DHT22;1985;48.592;8.850;2022-11-20T09:17:06;6.00;99.90
3942;DHT22;1985;48.592;8.850;2022-11-20T09:19:33;6.00;99.90
3942;DHT22;1985;48.592;8.850;2022-11-20T09:22:00;6.10;99.90
3942;DHT22;1985;48.592;8.850;2022-11-20T09:24:26;6.10;99.90
3942;DHT22;1985;48.592;8.850;2022-11-20T09:26:53;6.10;99.90
3942;DHT22;1985;48.592;8.850;2022-11-20T09:29:18;6.00;99.90
3942;DHT22;1985;48.592;8.850;2022-11-20T09:31:44;5.90;99.90
3942;DHT22;1985;48.592;8.850;2022-11-20T09:34:10;5.90;99.90
3942;DHT22;1985;48.592;8.850;2022-11-20T09:36:36;5.90;99.90
3942;DHT22;1985;48.592;8.850;2022-11-20T09:39:01;5.90;99.90
3942;DHT22;1985;48.592;8.850;2022-11-20T09:47:08;6.00;99.90
3942;DHT22;1985;48.592;8.850;2022-11-20T09:55:02;6.10;99.90
3942;DHT22;1985;48.592;8.850;2022-11-20T09:57:40;6.10;99.90
3942;DHT22;1985;48.592;8.850;2022-11-20T10:00:11;6.20;99.90
3942;DHT22;1985;48.592;8.850;2022-11-20T10:02:43;6.20;99.90
3942;DHT22;1985;48.592;8.850;2022-11-20T10:05:27;6.30;99.90
3942;DHT22;1985;48.592;8.850;2022-11-20T10:11:14;6.30;99.90
3942;DHT22;1985;48.592;8.850;2022-11-20T10:13:55;6.40;99.90
3942;DHT22;1985;48.592;8.850;2022-11-20T10:29:42;6.60;99.90
3942;DHT22;1985;48.592;8.850;2022-11-20T10:32:17;6.60;99.90
3942;DHT22;1985;48.592;8.850;2022-11-20T10:34:52;6.80;99.90
3942;DHT22;1985;48.592;8.850;2022-11-20T10:37:26;6.90;99.90
3942;DHT22;1985;48.592;8.850;2022-11-20T10:39:58;7.40;99.90
3942;DHT22;1985;48.592;8.850;2022-11-20T10:42:44;8.70;99.90
3942;DHT22;1985;48.592;8.850;2022-11-20T10:45:22;10.10;99.90
3942;DHT22;1985;48.592;8.850;2022-11-20T10:48:30;11.80;99.90
3942;DHT22;1985;48.592;8.850;2022-11-20T10:54:32;13.10;99.90
3942;DHT22;1985;48.592;8.850;2022-11-20T11:02:22;9.40;99.90
3942;DHT22;1985;48.592;8.850;2022-11-20T11:04:53;9.00;99.90
3942;DHT22;1985;48.592;8.850;2022-11-20T11:07:35;8.90;99.90
3942;DHT22;1985;48.592;8.850;2022-11-20T11:10:09;8.60;99.90
3942;DHT22;1985;48.592;8.850;2022-11-20T11:12:46;8.40;99.90
3942;DHT22;1985;48.592;8.850;2022-11-20T11:17:51;8.30;99.90
3942;DHT22;1985;48.592;8.850;2022-11-20T11:20:25;8.70;99.90
3942;DHT22;1985;48.592;8.850;2022-11-20T11:22:56;9.90;99.90
3942;DHT22;1985;48.592;8.850;2022-11-20T11:25:31;11.10;99.90
3942;DHT22;1985;48.592;8.850;2022-11-20T11:28:19;11.30;99.90
3942;DHT22;1985;48.592;8.850;2022-11-20T11:30:45;11.80;99.90
3942;DHT22;1985;48.592;8.850;2022-11-20T11:33:20;11.50;99.90
3942;DHT22;1985;48.592;8.850;2022-11-20T11:35:58;10.10;99.90
3942;DHT22;1985;48.592;8.850;2022-11-20T11:38:32;9.10;99.90
3942;DHT22;1985;48.592;8.850;2022-11-20T11:41:01;9.50;99.90
3942;DHT22;1985;48.592;8.850;2022-11-20T11:43:30;9.60;99.90
3942;DHT22;1985;48.592;8.850;2022-11-20T11:46:31;10.10;99.90
3942;DHT22;1985;48.592;8.850;2022-11-20T11:49:21;11.40;99.90
3942;DHT22;1985;48.592;8.850;2022-11-20T11:54:53;13.50;98.90
3942;DHT22;1985;48.592;8.850;2022-11-20T11:57:24;14.00;98.60
3942;DHT22;1985;48.592;8.850;2022-11-20T12:03:02;13.00;97.10
3942;DHT22;1985;48.592;8.850;2022-11-20T12:10:53;10.90;99.90
3942;DHT22;1985;48.592;8.850;2022-11-20T12:16:02;9.30;99.90
3942;DHT22;1985;48.592;8.850;2022-11-20T12:18:28;10.40;99.90
3942;DHT22;1985;48.592;8.850;2022-11-20T12:23:53;11.20;99.90
3942;DHT22;1985;48.592;8.850;2022-11-20T12:29:29;10.00;99.90
3942;DHT22;1985;48.592;8.850;2022-11-20T12:46:24;13.70;95.70
3942;DHT22;1985;48.592;8.850;2022-11-20T12:57:25;11.80;95.20
3942;DHT22;1985;48.592;8.850;2022-11-20T13:00:15;12.20;94.80
3942;DHT22;1985;48.592;8.850;2022-11-20T13:03:14;11.90;93.40
3942;DHT22;1985;48.592;8.850;2022-11-20T13:05:59;12.00;93.30
3942;DHT22;1985;48.592;8.850;2022-11-20T13:08:38;12.70;93.50
3942;DHT22;1985;48.592;8.850;2022-11-20T13:17:24;10.40;94.20
3942;DHT22;1985;48.592;8.850;2022-11-20T13:19:56;9.60;96.60
3942;DHT22;1985;48.592;8.850;2022-11-20T13:27:50;8.50;99.90
3942;DHT22;1985;48.592;8.850;2022-11-20T13:30:18;8.20;99.90
3942;DHT22;1985;48.592;8.850;2022-11-20T13:32:56;8.20;99.90
3942;DHT22;1985;48.592;8.850;2022-11-20T13:35:35;8.00;99.90
3942;DHT22;1985;48.592;8.850;2022-11-20T13:40:30;8.40;99.90
3942;DHT22;1985;48.592;8.850;2022-11-20T13:45:31;8.50;99.90
3942;DHT22;1985;48.592;8.850;2022-11-20T13:48:01;8.30;99.90
3942;DHT22;1985;48.592;8.850;2022-11-20T13:51:03;7.90;99.90
3942;DHT22;1985;48.592;8.850;2022-11-20T13:53:52;7.80;99.90
3942;DHT22;1985;48.592;8.850;2022-11-20T13:56:24;7.70;99.90
3942;DHT22;1985;48.592;8.850;2022-11-20T14:01:21;7.60;99.90
3942;DHT22;1985;48.592;8.850;2022-11-20T14:03:48;7.60;99.90
3942;DHT22;1985;48.592;8.850;2022-11-20T14:06:26;7.50;99.90
3942;DHT22;1985;48.592;8.850;2022-11-20T14:08:52;7.20;99.90
3942;DHT22;1985;48.592;8.850;2022-11-20T14:14:10;7.00;99.90
3942;DHT22;1985;48.592;8.850;2022-11-20T14:16:38;7.00;99.90
3942;DHT22;1985;48.592;8.850;2022-11-20T14:21:49;6.90;99.90
3942;DHT22;1985;48.592;8.850;2022-11-20T14:24:24;6.90;99.90
3942;DHT22;1985;48.592;8.850;2022-11-20T14:26:51;6.90;99.90
3942;DHT22;1985;48.592;8.850;2022-11-20T14:29:23;6.80;99.90
3942;DHT22;1985;48.592;8.850;2022-11-20T14:31:52;6.80;99.90
3942;DHT22;1985;48.592;8.850;2022-11-20T14:34:24;6.80;99.90
3942;DHT22;1985;48.592;8.850;2022-11-20T14:37:05;6.80;99.90
3942;DHT22;1985;48.592;8.850;2022-11-20T14:39:36;6.60;99.90
3942;DHT22;1985;48.592;8.850;2022-11-20T14:42:13;6.30;99.90
3942;DHT22;1985;48.592;8.850;2022-11-20T14:44:41;6.10;99.90
3942;DHT22;1985;48.592;8.850;2022-11-20T14:47:10;6.00;99.90
3942;DHT22;1985;48.592;8.850;2022-11-20T14:49:37;6.00;99.90
3942;DHT22;1985;48.592;8.850;2022-11-20T14:52:30;6.00;99.90
3942;DHT22;1985;48.592;8.850;2022-11-20T14:54:57;6.00;99.90
3942;DHT22;1985;48.592;8.850;2022-11-20T15:02:43;6.10;99.90
3942;DHT22;1985;48.592;8.850;2022-11-20T15:05:09;6.10;99.90
3942;DHT22;1985;48.592;8.850;2022-11-20T15:07:36;6.20;99.90
3942;DHT22;1985;48.592;8.850;2022-11-20T15:10:09;6.10;99.90
3942;DHT22;1985;48.592;8.850;2022-11-20T15:12:51;6.20;99.90
3942;DHT22;1985;48.592;8.850;2022-11-20T15:17:52;6.40;99.90
3942;DHT22;1985;48.592;8.850;2022-11-20T15:20:19;6.30;99.90
3942;DHT22;1985;48.592;8.850;2022-11-20T15:22:46;6.20;99.90
3942;DHT22;1985;48.592;8.850;2022-11-20T15:25:14;6.20;99.90
3942;DHT22;1985;48.592;8.850;2022-11-20T15:27:40;6.30;99.90
3942;DHT22;1985;48.592;8.850;2022-11-20T15:30:18;6.40;99.90
3942;DHT22;1985;48.592;8.850;2022-11-20T15:32:45;6.40;99.90
3942;DHT22;1985;48.592;8.850;2022-11-20T15:35:11;6.30;99.90
3942;DHT22;1985;48.592;8.850;2022-11-20T15:37:37;6.40;99.90
3942;DHT22;1985;48.592;8.850;2022-11-20T15:40:04;6.50;99.90
3942;DHT22;1985;48.592;8.850;2022-11-20T15:42:30;6.50;99.90
3942;DHT22;1985;48.592;8.850;2022-11-20T15:44:55;6.50;99.90
3942;DHT22;1985;48.592;8.850;2022-11-20T15:47:27;6.50;99.90
3942;DHT22;1985;48.592;8.850;2022-11-20T15:49:53;6.40;99.90
3942;DHT22;1985;48.592;8.850;2022-11-20T15:52:19;6.40;99.90
3942;DHT22;1985;48.592;8.850;2022-11-20T15:54:44;6.20;99.90
3942;DHT22;1985;48.592;8.850;2022-11-20T15:57:10;6.20;99.90
3942;DHT22;1985;48.592;8.850;2022-11-20T15:59:36;6.10;99.90
3942;DHT22;1985;48.592;8.850;2022-11-20T16:02:15;6.20;99.90
3942;DHT22;1985;48.592;8.850;2022-11-20T16:04:41;6.20;99.90
3942;DHT22;1985;48.592;8.850;2022-11-20T16:07:07;6.30;99.90
3942;DHT22;1985;48.592;8.850;2022-11-20T16:09:33;6.40;99.90
3942;DHT22;1985;48.592;8.850;2022-11-20T16:11:59;6.40;99.90
3942;DHT22;1985;48.592;8.850;2022-11-20T16:14:26;6.50;99.90
3942;DHT22;1985;48.592;8.850;2022-11-20T16:17:11;6.50;99.90
3942;DHT22;1985;48.592;8.850;2022-11-20T16:19:37;6.50;99.90
3942;DHT22;1985;48.592;8.850;2022-11-20T16:22:03;6.50;99.90
3942;DHT22;1985;48.592;8.850;2022-11-20T16:24:28;6.50;99.90
3942;DHT22;1985;48.592;8.850;2022-11-20T16:26:55;6.60;99.90
3942;DHT22;1985;48.592;8.850;2022-11-20T16:29:21;6.60;99.90
3942;DHT22;1985;48.592;8.850;2022-11-20T16:31:46;6.50;99.90
3942;DHT22;1985;48.592;8.850;2022-11-20T16:34:17;6.50;99.90
3942;DHT22;1985;48.592;8.850;2022-11-20T16:36:52;6.50;99.90
3942;DHT22;1985;48.592;8.850;2022-11-20T16:39:18;6.50;99.90
3942;DHT22;1985;48.592;8.850;2022-11-20T16:41:43;6.60;99.90
3942;DHT22;1985;48.592;8.850;2022-11-20T16:44:10;6.60;99.90
3942;DHT22;1985;48.592;8.850;2022-11-20T16:46:36;6.50;99.90
3942;DHT22;1985;48.592;8.850;2022-11-20T16:49:04;6.50;99.90
3942;DHT22;1985;48.592;8.850;2022-11-20T16:51:33;6.60;99.90
3942;DHT22;1985;48.592;8.850;2022-11-20T16:54:09;6.60;99.90
3942;DHT22;1985;48.592;8.850;2022-11-20T16:56:35;6.60;99.90
3942;DHT22;1985;48.592;8.850;2022-11-20T16:59:01;6.60;99.90
3942;DHT22;1985;48.592;8.850;2022-11-20T17:01:28;6.60;99.90
3942;DHT22;1985;48.592;8.850;2022-11-20T17:04:04;6.60;99.90
3942;DHT22;1985;48.592;8.850;2022-11-20T17:06:35;6.70;99.90
3942;DHT22;1985;48.592;8.850;2022-11-20T17:09:02;6.60;99.90
3942;DHT22;1985;48.592;8.850;2022-11-20T17:11:28;6.70;99.90
3942;DHT22;1985;48.592;8.850;2022-11-20T17:13:55;6.80;99.90
3942;DHT22;1985;48.592;8.850;2022-11-20T17:16:23;6.60;99.90
3942;DHT22;1985;48.592;8.850;2022-11-20T17:18:49;6.70;99.90
3942;DHT22;1985;48.592;8.850;2022-11-20T17:21:16;6.80;99.90
3942;DHT22;1985;48.592;8.850;2022-11-20T17:23:43;6.90;99.90
3942;DHT22;1985;48.592;8.850;2022-11-20T17:26:18;6.90;99.90
3942;DHT22;1985;48.592;8.850;2022-11-20T17:28:45;6.80;99.90
3942;DHT22;1985;48.592;8.850;2022-11-20T17:31:13;6.70;99.90
3942;DHT22;1985;48.592;8.850;2022-11-20T17:33:41;6.80;99.90
3942;DHT22;1985;48.592;8.850;2022-11-20T17:36:08;6.80;99.90
3942;DHT22;1985;48.592;8.850;2022-11-20T17:38:35;6.80;99.90
3942;DHT22;1985;48.592;8.850;2022-11-20T17:41:06;6.70;99.90
3942;DHT22;1985;48.592;8.850;2022-11-20T17:43:32;6.60;99.90
3942;DHT22;1985;48.592;8.850;2022-11-20T17:45:58;6.50;99.90
3942;DHT22;1985;48.592;8.850;2022-11-20T17:48:24;6.50;99.90
3942;DHT22;1985;48.592;8.850;2022-11-20T17:50:50;6.60;99.90
3942;DHT22;1985;48.592;8.850;2022-11-20T17:53:16;6.50;99.90
3942;DHT22;1985;48.592;8.850;2022-11-20T17:55:42;6.50;99.90
3942;DHT22;1985;48.592;8.850;2022-11-20T17:58:27;6.40;99.90
3942;DHT22;1985;48.592;8.850;2022-11-20T18:00:53;6.60;99.90
3942;DHT22;1985;48.592;8.850;2022-11-20T18:03:18;6.60;99.90
3942;DHT22;1985;48.592;8.850;2022-11-20T18:05:44;6.60;99.90
3942;DHT22;1985;48.592;8.850;2022-11-20T18:08:09;6.40;99.90
3942;DHT22;1985;48.592;8.850;2022-11-20T18:10:36;6.30;99.90
3942;DHT22;1985;48.592;8.850;2022-11-20T18:13:02;6.40;99.90
3942;DHT22;1985;48.592;8.850;2022-11-20T18:15:28;6.40;99.90
3942;DHT22;1985;48.592;8.850;2022-11-20T18:17:54;6.40;99.90
3942;DHT22;1985;48.592;8.850;2022-11-20T18:20:20;6.40;99.90
3942;DHT22;1985;48.592;8.850;2022-11-20T18:22:46;6.40;99.90
3942;DHT22;1985;48.592;8.850;2022-11-20T18:25:11;6.40;99.90
3942;DHT22;1985;48.592;8.850;2022-11-20T18:27:37;6.40;99.90
3942;DHT22;1985;48.592;8.850;2022-11-20T18:30:03;6.40;99.90